Time;durP1;ratioP1;P1;durP2;ratioP2;P2;SDS_P1;SDS_P2;PMS_P1;PMS_P2;Temp;Humidity;BMP_temperature;BMP_pressure;BME280_temperature;BME280_humidity;BME280_pressure;Samples;Min_cycle;Max_cycle;Signal;HPM_P1;HPM_P2
2022/06/03 00:00:56;;;;;;;12.60;2.00;;;;;;;43.37;7.22;100260.88;5094447;28;20359;-67
2022/06/03 00:03:42;;;;;;;6.45;1.58;;;;;;;44.24;6.65;100260.66;5093968;28;20020;-68
2022/06/03 00:06:46;;;;;;;13.63;1.90;;;;;;;44.91;6.23;100243.91;5062949;28;20418;-70
2022/06/03 00:09:34;;;;;;;13.43;2.33;;;;;;;42.79;7.13;100249.22;5079510;28;20028;-70
2022/06/03 00:12:23;;;;;;;13.10;2.22;;;;;;;44.33;6.63;100253.94;5094224;28;20375;-68
2022/06/03 00:15:33;;;;;;;17.67;2.25;;;;;;;42.73;6.40;100236.91;5093951;28;20410;-67
2022/06/03 00:18:27;;;;;;;20.10;2.08;;;;;;;43.18;6.61;100234.63;5100660;28;20036;-69
2022/06/03 00:20:56;;;;;;;;;;;;;;;43.68;6.31;100235.16;5097051;28;20032;-70
2022/06/03 00:23:58;;;;;;;13.18;2.00;;;;;;;43.10;6.55;100242.09;5094569;28;20374;-69
2022/06/03 00:26:32;;;;;;;10.07;2.08;;;;;;;43.10;6.88;100239.22;5031711;28;20462;-69
2022/06/03 00:29:04;;;;;;;13.50;2.10;;;;;;;42.71;6.59;100235.81;5078222;28;20115;-69
2022/06/03 00:31:47;;;;;;;11.18;1.90;;;;;;;40.79;7.54;100232.91;5093970;28;20363;-69
2022/06/03 00:34:37;;;;;;;16.67;1.92;;;;;;;40.92;7.24;100238.34;5092718;28;20032;-70
2022/06/03 00:37:35;;;;;;;15.77;1.88;;;;;;;40.29;7.38;100235.38;5092444;28;20032;-69
2022/06/03 00:40:19;;;;;;;21.42;2.60;;;;;;;40.64;7.22;100235.69;5090882;28;20225;-69
2022/06/03 00:42:52;;;;;;;18.65;2.55;;;;;;;41.04;7.19;100226.72;5091607;28;20044;-67
2022/06/03 00:45:56;;;;;;;15.52;2.15;;;;;;;40.44;7.66;100227.72;5092071;28;20044;-68
2022/06/03 00:48:23;;;;;;;17.58;2.10;;;;;;;40.78;7.36;100231.31;5092169;28;20032;-68
2022/06/03 00:51:06;;;;;;;15.48;2.67;;;;;;;40.56;7.87;100227.97;5092284;28;20024;-68
2022/06/03 00:53:35;;;;;;;21.95;2.65;;;;;;;39.88;8.11;100231.25;5090401;28;20490;-70
2022/06/03 00:56:33;;;;;;;13.80;2.05;;;;;;;40.53;7.49;100234.63;5085144;28;20477;-66
2022/06/03 00:59:48;;;;;;;12.88;2.20;;;;;;;40.17;7.52;100237.16;5077536;28;20120;-65
2022/06/03 01:02:32;;;;;;;21.95;2.55;;;;;;;40.20;7.85;100234.63;5076361;28;20040;-64
2022/06/03 01:05:26;;;;;;;12.73;2.10;;;;;;;40.25;7.37;100236.81;5079744;28;20024;-65
2022/06/03 01:08:02;;;;;;;18.83;2.50;;;;;;;40.02;7.57;100229.78;5079204;28;20033;-65
2022/06/03 01:10:56;;;;;;;12.40;2.40;;;;;;;40.00;7.55;100226.63;5077869;28;20501;-66
2022/06/03 01:13:39;;;;;;;14.38;2.05;;;;;;;39.55;7.91;100236.84;5077403;28;20036;-65
2022/06/03 01:16:17;;;;;;;10.07;1.88;;;;;;;39.72;8.23;100232.41;5073661;28;20032;-65
2022/06/03 01:18:50;;;;;;;13.93;1.88;;;;;;;39.64;8.11;100231.13;5077626;28;20033;-65
2022/06/03 01:21:40;;;;;;;19.67;2.60;;;;;;;38.99;8.31;100232.41;5075832;28;20123;-65
2022/06/03 01:24:19;;;;;;;20.63;2.15;;;;;;;39.04;8.57;100233.81;5078856;28;20059;-66
2022/06/03 01:27:19;;;;;;;15.35;2.15;;;;;;;38.86;8.88;100231.75;5079111;28;20035;-64
2022/06/03 01:30:04;;;;;;;19.20;2.15;;;;;;;38.93;8.86;100232.22;5079095;28;20028;-65
2022/06/03 01:32:49;;;;;;;21.75;2.28;;;;;;;38.68;9.10;100227.63;5078736;28;20036;-65
2022/06/03 01:35:33;;;;;;;23.35;2.33;;;;;;;38.57;9.17;100227.25;5077586;28;20033;-65
2022/06/03 01:38:24;;;;;;;17.45;2.08;;;;;;;38.06;9.19;100247.56;5073700;28;20052;-64
2022/06/03 01:41:12;;;;;;;17.63;2.28;;;;;;;37.91;9.08;100246.53;5079675;28;20494;-65
2022/06/03 01:44:32;;;;;;;18.73;2.30;;;;;;;37.74;8.97;100239.50;5085222;28;20040;-64
2022/06/03 01:47:20;;;;;;;15.82;2.22;;;;;;;37.45;9.14;100246.19;5076752;28;20498;-64
2022/06/03 01:50:36;;;;;;;12.00;1.90;;;;;;;37.32;9.17;100250.34;5086631;28;20091;-67
2022/06/03 01:53:28;;;;;;;18.75;2.15;;;;;;;37.28;9.42;100253.31;5063120;28;20082;-67
2022/06/03 01:56:07;;;;;;;13.50;2.03;;;;;;;37.09;9.00;100254.38;5078205;28;20036;-67
2022/06/03 01:58:58;;;;;;;21.83;2.72;;;;;;;36.86;9.42;100245.03;5080406;28;20036;-64
2022/06/03 02:01:37;;;;;;;17.63;2.10;;;;;;;36.74;10.04;100245.81;5079912;28;20479;-67
2022/06/03 02:04:17;;;;;;;23.17;2.47;;;;;;;36.58;9.13;100251.63;5076801;28;20119;-67
2022/06/03 02:06:52;;;;;;;16.88;2.70;;;;;;;36.41;10.00;100253.00;5077138;28;20542;-66
2022/06/03 02:09:44;;;;;;;19.20;2.83;;;;;;;36.28;10.32;100245.28;5078559;28;20036;-67
2022/06/03 02:12:37;;;;;;;20.05;2.63;;;;;;;36.14;10.30;100245.75;5079341;28;20440;-67
2022/06/03 02:15:31;;;;;;;17.70;2.08;;;;;;;35.90;11.42;100255.75;5076852;28;20039;-67
2022/06/03 02:18:19;;;;;;;23.00;2.45;;;;;;;35.67;11.71;100254.78;5078939;28;20032;-67
2022/06/03 02:21:08;;;;;;;21.27;2.65;;;;;;;35.58;12.06;100254.66;5077004;28;20035;-67
2022/06/03 02:23:41;;;;;;;19.50;2.55;;;;;;;35.34;12.04;100261.78;5078573;28;20040;-67
2022/06/03 02:26:42;;;;;;;18.88;2.53;;;;;;;35.26;12.19;100266.03;5078243;28;20222;-67
2022/06/03 02:32:35;;;;;;;17.35;2.00;;;;;;;34.94;12.40;100267.69;5074773;28;20035;-68
2022/06/03 02:35:32;;;;;;;11.70;1.80;;;;;;;34.76;12.31;100275.78;5077272;28;20029;-68
2022/06/03 02:38:36;;;;;;;16.00;1.58;;;;;;;34.65;12.61;100272.41;5075577;28;20037;-68
2022/06/03 02:41:36;;;;;;;12.13;1.90;;;;;;;34.45;13.05;100270.47;5077144;28;20036;-66
2022/06/03 02:44:25;;;;;;;17.48;2.55;;;;;;;34.22;13.43;100267.75;5078541;28;20154;-66
2022/06/03 02:47:09;;;;;;;15.32;2.22;;;;;;;34.28;13.20;100266.00;5075362;28;20032;-67
2022/06/03 02:49:54;;;;;;;;;;;;;;;34.02;13.44;100275.47;5084504;28;20036;-67
2022/06/03 02:52:24;;;;;;;11.57;2.25;;;;;;;33.75;13.87;100270.75;5076431;28;19978;-67
2022/06/03 02:55:05;;;;;;;14.88;2.38;;;;;;;33.62;13.52;100269.84;5081829;28;20075;-66
2022/06/03 02:58:00;;;;;;;19.48;2.60;;;;;;;33.72;13.69;100276.47;5087350;28;20032;-65
2022/06/03 03:00:33;;;;;;;13.00;2.95;;;;;;;33.53;13.73;100289.34;5060397;28;20055;-66
2022/06/03 03:03:17;;;;;;;17.30;2.63;;;;;;;33.43;14.19;100281.91;5087307;28;20386;-65
2022/06/03 03:06:09;;;;;;;15.43;2.67;;;;;;;33.16;14.18;100285.56;5087779;28;20028;-65
2022/06/03 03:09:09;;;;;;;20.52;2.58;;;;;;;32.96;14.68;100293.16;5089522;28;20046;-65
2022/06/03 03:12:03;;;;;;;17.02;2.83;;;;;;;33.05;14.23;100294.22;5091314;28;20111;-66
2022/06/03 03:14:59;;;;;;;11.88;2.30;;;;;;;33.17;14.32;100300.44;5088179;28;20058;-65
2022/06/03 03:17:44;;;;;;;18.88;2.92;;;;;;;32.91;15.17;100299.28;5099246;28;20463;-65
2022/06/03 03:20:31;;;;;;;19.85;3.53;;;;;;;32.68;14.80;100308.50;5086995;28;20482;-65
2022/06/03 03:23:01;;;;;;;15.50;2.75;;;;;;;32.64;15.47;100314.16;5093289;28;20509;-65
2022/06/03 03:25:58;;;;;;;11.55;2.88;;;;;;;32.60;14.84;100313.41;5094958;28;20666;-65
2022/06/03 03:28:57;;;;;;;203.32;9.07;;;;;;;32.30;15.59;100305.81;5094252;28;20043;-65
2022/06/03 03:31:52;;;;;;;23.65;3.25;;;;;;;32.20;15.69;100305.94;5090100;28;20066;-66
2022/06/03 03:34:42;;;;;;;14.80;2.95;;;;;;;32.08;15.76;100316.53;5095262;28;20036;-64
2022/06/03 03:37:24;;;;;;;15.75;3.08;;;;;;;31.92;16.05;100323.97;5095172;28;20032;-65
2022/06/03 03:40:09;;;;;;;16.67;3.83;;;;;;;31.83;16.19;100318.88;5094857;28;20028;-65
2022/06/03 03:42:47;;;;;;;29.85;4.72;;;;;;;31.67;16.20;100316.59;5094837;28;20082;-65
2022/06/03 03:45:44;;;;;;;21.92;4.35;;;;;;;31.39;16.63;100334.53;5080853;28;20043;-65
2022/06/03 03:48:39;;;;;;;21.60;3.63;;;;;;;31.60;16.50;100335.53;5095222;28;20040;-65
2022/06/03 03:51:16;;;;;;;38.00;4.05;;;;;;;31.66;16.15;100347.94;5094419;28;20494;-65
2022/06/03 03:53:54;;;;;;;42.47;4.57;;;;;;;31.45;16.32;100351.75;5094254;28;20376;-65
2022/06/03 03:56:54;;;;;;;42.05;4.80;;;;;;;31.78;16.32;100362.28;5092841;28;20032;-65
2022/06/03 03:59:30;;;;;;;24.95;5.07;;;;;;;31.97;15.76;100388.97;5093291;28;20063;-66
2022/06/03 04:02:28;;;;;;;21.75;3.78;;;;;;;32.17;15.92;100387.13;5088429;28;20032;-65
2022/06/03 04:05:16;;;;;;;17.50;2.90;;;;;;;32.08;15.08;100375.56;5092929;28;20028;-65
2022/06/03 04:07:52;;;;;;;29.30;3.90;;;;;;;32.03;15.94;100381.66;5091743;28;20081;-66
2022/06/03 04:10:56;;;;;;;18.42;3.40;;;;;;;32.16;15.73;100379.91;5093545;28;20120;-65
2022/06/03 04:13:31;;;;;;;20.83;3.17;;;;;;;32.00;15.16;100379.69;5080879;28;20106;-65
2022/06/03 04:16:22;;;;;;;15.65;3.22;;;;;;;31.61;15.46;100373.69;5092306;28;20115;-63
2022/06/03 04:18:58;;;;;;;18.88;3.33;;;;;;;31.57;15.57;100385.72;5091280;28;20036;-66
2022/06/03 04:22:06;;;;;;;21.10;3.50;;;;;;;31.49;15.24;100381.41;5092420;28;20052;-63
2022/06/03 04:25:07;;;;;;;20.10;3.28;;;;;;;31.48;15.31;100384.63;5092081;28;20128;-63
2022/06/03 04:28:12;;;;;;;28.40;4.15;;;;;;;31.11;15.71;100393.75;5092750;28;20040;-65
2022/06/03 04:31:03;;;;;;;29.17;3.87;;;;;;;30.65;16.34;100395.63;5093310;28;20097;-64
2022/06/03 04:33:36;;;;;;;21.55;3.80;;;;;;;30.41;16.83;100398.56;5094115;28;20035;-65
2022/06/03 04:36:39;;;;;;;26.52;3.60;;;;;;;30.46;16.24;100398.13;5092886;28;20122;-64
2022/06/03 04:39:15;;;;;;;31.45;3.80;;;;;;;30.25;16.58;100394.22;5079154;28;20087;-65
2022/06/03 04:42:03;;;;;;;15.40;3.08;;;;;;;30.09;16.37;100393.88;5094316;28;20062;-64
2022/06/03 04:45:06;;;;;;;22.17;3.10;;;;;;;29.90;16.41;100389.50;5093985;28;20024;-65
2022/06/03 04:47:45;;;;;;;26.92;3.63;;;;;;;29.95;16.59;100394.69;5082224;28;20040;-66
2022/06/03 04:50:30;;;;;;;27.27;3.30;;;;;;;29.72;16.75;100395.13;5093755;28;20032;-66
2022/06/03 04:53:09;;;;;;;24.63;3.20;;;;;;;29.51;17.56;100397.19;5083756;28;20059;-65
2022/06/03 04:55:57;;;;;;;24.92;3.80;;;;;;;29.42;17.24;100409.53;5093572;28;20390;-64
2022/06/03 04:58:42;;;;;;;26.63;4.15;;;;;;;29.25;17.53;100403.94;5093655;28;20071;-65
2022/06/03 05:01:49;;;;;;;29.05;5.60;;;;;;;29.18;17.96;100411.16;5092665;28;20036;-65
2022/06/03 05:04:21;;;;;;;27.20;6.53;;;;;;;28.96;17.76;100415.13;5093508;28;20028;-64
2022/06/03 05:07:14;;;;;;;28.33;6.18;;;;;;;29.03;17.81;100426.31;5093867;28;20146;-65
2022/06/03 05:10:34;;;;;;;22.88;5.85;;;;;;;28.97;18.31;100422.31;5092114;28;20090;-65
2022/06/03 05:13:19;;;;;;;26.05;5.93;;;;;;;29.11;18.42;100427.13;5031044;28;20044;-65
2022/06/03 05:16:20;;;;;;;26.88;6.15;;;;;;;28.94;18.27;100425.91;5092683;28;20482;-65
2022/06/03 05:18:52;;;;;;;21.02;6.03;;;;;;;28.76;18.76;100431.44;5093332;28;20040;-65
2022/06/03 05:21:38;;;;;;;25.70;6.10;;;;;;;28.61;18.94;100443.78;5093024;28;20044;-65
2022/06/03 05:24:43;;;;;;;25.15;7.75;;;;;;;28.70;19.03;100451.78;5092463;28;20035;-66
2022/06/03 05:27:30;;;;;;;26.38;7.57;;;;;;;28.44;19.21;100442.50;5078829;28;20059;-65
2022/06/03 05:30:29;;;;;;;29.42;7.68;;;;;;;28.37;19.16;100439.69;5091117;28;20119;-65
2022/06/03 05:33:40;;;;;;;29.38;7.50;;;;;;;28.26;19.45;100442.44;5053552;28;20040;-65
2022/06/03 05:36:25;;;;;;;27.90;6.43;;;;;;;28.19;19.55;100444.38;5071579;28;20047;-68
2022/06/03 05:39:10;;;;;;;;;;;;;;;28.18;19.45;100437.16;5092105;28;20038;-65
2022/06/03 05:45:01;;;;;;;34.08;4.40;;;;;;;28.14;19.37;100445.50;5092758;28;20044;-66
2022/06/03 05:47:51;;;;;;;16.10;3.10;;;;;;;27.98;19.90;100445.03;5092904;28;20024;-65
2022/06/03 05:50:55;;;;;;;33.83;4.43;;;;;;;28.01;19.72;100447.06;5092535;28;20039;-66
2022/06/03 05:53:42;;;;;;;20.50;4.25;;;;;;;27.94;19.71;100442.22;5079735;28;20486;-67
2022/06/03 05:56:29;;;;;;;20.80;3.63;;;;;;;27.65;20.24;100448.81;5091004;28;20518;-67
2022/06/03 05:59:12;;;;;;;27.30;4.05;;;;;;;27.73;20.75;100444.84;5089587;28;20062;-64
2022/06/03 06:01:57;;;;;;;17.40;3.75;;;;;;;27.67;20.34;100452.81;5090407;28;20040;-63
2022/06/03 06:04:45;;;;;;;15.60;4.00;;;;;;;27.63;20.53;100445.56;5091788;28;20032;-65
2022/06/03 06:07:37;;;;;;;14.35;3.67;;;;;;;27.48;20.74;100455.81;5091001;28;20032;-66
2022/06/03 06:10:31;;;;;;;18.65;3.92;;;;;;;27.45;20.83;100452.97;5088692;28;20039;-67
2022/06/03 06:13:26;;;;;;;37.35;6.38;;;;;;;27.55;20.58;100455.06;5091604;28;20028;-65
2022/06/03 06:16:16;;;;;;;26.77;5.45;;;;;;;27.53;21.18;100465.81;5083537;28;20032;-66
2022/06/03 06:19:09;;;;;;;26.17;5.15;;;;;;;27.47;21.29;100458.97;5091597;28;20359;-65
2022/06/03 06:22:02;;;;;;;26.88;4.57;;;;;;;27.38;21.69;100456.50;5092165;28;20459;-67
2022/06/03 06:24:35;;;;;;;25.83;5.03;;;;;;;27.31;22.33;100456.47;5090624;28;20083;-66
2022/06/03 06:27:30;;;;;;;26.75;3.92;;;;;;;27.27;22.46;100453.63;5087692;28;20382;-66
2022/06/03 06:30:23;;;;;;;21.60;3.95;;;;;;;27.30;23.22;100455.66;5089571;28;20074;-66
2022/06/03 06:33:04;;;;;;;33.90;4.75;;;;;;;27.22;23.32;100453.97;5091203;28;20024;-65
2022/06/03 06:35:57;;;;;;;32.00;7.38;;;;;;;27.04;24.17;100458.56;5090336;28;20060;-65
2022/06/03 06:38:40;;;;;;;31.58;6.65;;;;;;;26.99;24.69;100450.53;5094069;28;20036;-66
2022/06/03 06:41:28;;;;;;;33.00;6.93;;;;;;;26.98;25.19;100457.28;5094702;28;20028;-67
2022/06/03 06:44:14;;;;;;;47.20;6.75;;;;;;;26.84;25.70;100459.91;5094143;28;20031;-64
2022/06/03 06:47:30;;;;;;;22.23;5.53;;;;;;;26.78;26.32;100457.47;5094860;28;20119;-67
2022/06/03 06:50:12;;;;;;;80.70;7.20;;;;;;;26.66;26.59;100452.16;5052821;28;20036;-66
2022/06/03 06:52:54;;;;;;;394.23;15.57;;;;;;;26.72;26.75;100453.41;5093897;28;20048;-67
2022/06/03 06:55:37;;;;;;;64.50;8.10;;;;;;;26.66;27.47;100457.72;5093226;28;20502;-64
2022/06/03 06:58:21;;;;;;;1095.00;51.25;;;;;;;26.52;28.30;100451.97;5094843;28;21329;-63
2022/06/03 07:00:50;;;;;;;63.03;6.18;;;;;;;26.43;28.69;100446.72;5094337;28;20028;-63
2022/06/03 07:03:49;;;;;;;25.58;4.85;;;;;;;26.53;28.76;100444.41;5095739;28;20020;-64
2022/06/03 07:06:20;;;;;;;22.17;4.15;;;;;;;26.47;28.95;100441.97;5093491;28;20043;-64
2022/06/03 07:09:00;;;;;;;24.40;4.25;;;;;;;26.31;29.28;100446.91;5095296;28;20048;-64
2022/06/03 07:11:45;;;;;;;23.85;4.43;;;;;;;26.26;29.68;100446.44;5095665;28;20570;-65
2022/06/03 07:14:20;;;;;;;335.60;17.60;;;;;;;26.17;29.72;100435.56;5095718;28;20027;-65
2022/06/03 07:20:06;;;;;;;13.30;4.45;;;;;;;26.05;30.03;100430.25;5095486;28;20044;-66
2022/06/03 07:22:56;;;;;;;15.48;5.13;;;;;;;26.02;30.12;100442.13;5095330;28;20081;-64
2022/06/03 07:25:44;;;;;;;21.33;4.82;;;;;;;25.90;30.99;100438.41;5095456;28;20051;-64
2022/06/03 07:28:27;;;;;;;18.45;5.05;;;;;;;25.84;31.21;100441.84;5095298;28;20051;-66
2022/06/03 07:31:32;;;;;;;19.77;4.40;;;;;;;25.78;31.03;100435.00;5094453;28;20032;-64
2022/06/03 07:34:05;;;;;;;21.10;4.68;;;;;;;25.74;31.63;100425.81;5081988;28;20055;-65
2022/06/03 07:36:40;;;;;;;25.75;5.07;;;;;;;25.67;31.61;100428.44;5095188;28;20032;-65
2022/06/03 07:39:23;;;;;;;24.63;4.60;;;;;;;25.52;32.67;100414.31;5095299;28;20084;-65
2022/06/03 07:42:00;;;;;;;25.27;5.55;;;;;;;25.50;32.50;100422.25;5095077;28;20372;-67
2022/06/03 07:44:39;;;;;;;20.88;4.53;;;;;;;25.53;32.85;100420.69;5095069;28;20028;-66
2022/06/03 07:47:09;;;;;;;19.55;4.85;;;;;;;25.52;33.29;100419.09;5077796;28;20036;-66
2022/06/03 07:49:38;;;;;;;13.77;3.78;;;;;;;25.47;33.78;100427.72;5094672;28;20024;-67
2022/06/03 07:52:14;;;;;;;14.07;4.72;;;;;;;25.40;34.12;100422.06;5095083;28;20382;-65
2022/06/03 07:54:55;;;;;;;14.65;3.78;;;;;;;25.35;34.78;100437.09;5093492;28;20088;-66
2022/06/03 07:57:28;;;;;;;15.63;4.20;;;;;;;25.32;34.75;100443.41;5095025;28;20511;-65
2022/06/03 07:59:58;;;;;;;20.27;4.38;;;;;;;25.20;34.92;100441.59;5093661;28;20028;-64
2022/06/03 08:02:26;;;;;;;14.23;4.15;;;;;;;25.18;35.99;100437.59;5094713;28;20028;-64
2022/06/03 08:05:13;;;;;;;19.75;4.55;;;;;;;25.13;36.58;100435.09;5093415;28;20085;-65
2022/06/03 08:10:58;;;;;;;23.58;4.93;;;;;;;25.09;36.76;100442.56;5094394;28;20040;-67
2022/06/03 08:13:44;;;;;;;23.13;4.85;;;;;;;24.99;37.10;100442.03;5093518;28;20043;-66
2022/06/03 08:16:25;;;;;;;;;;;;;;;24.87;38.41;100450.50;5093508;28;20028;-66
2022/06/03 08:19:00;;;;;;;21.05;4.70;;;;;;;24.75;39.39;100450.63;5092036;28;20289;-65
2022/06/03 08:21:38;;;;;;;19.83;5.10;;;;;;;24.72;40.70;100451.38;5094294;28;20048;-62
2022/06/03 08:24:07;;;;;;;20.27;6.10;;;;;;;24.70;40.88;100448.16;5094067;28;20036;-64
2022/06/03 08:26:36;;;;;;;23.92;8.57;;;;;;;24.78;42.20;100449.94;5092794;28;20063;-65
2022/06/03 08:29:09;;;;;;;30.60;8.80;;;;;;;24.78;41.76;100452.72;5076530;28;20023;-65
2022/06/03 08:31:37;;;;;;;23.15;9.40;;;;;;;24.75;42.41;100447.88;5075419;28;20032;-63
2022/06/03 08:34:08;;;;;;;27.60;9.70;;;;;;;24.63;42.72;100451.63;5092861;28;20469;-66
2022/06/03 08:36:39;;;;;;;22.88;7.97;;;;;;;24.68;42.83;100453.28;5094065;28;20171;-65
2022/06/03 08:39:16;;;;;;;24.63;7.55;;;;;;;24.69;43.47;100454.91;5093018;28;20028;-65
2022/06/03 08:41:59;;;;;;;16.08;5.75;;;;;;;24.60;43.60;100451.56;5092618;28;20059;-65
2022/06/03 08:44:50;;;;;;;16.30;5.00;;;;;;;24.63;44.24;100465.50;5093958;28;20042;-65
2022/06/03 08:47:34;;;;;;;14.73;4.63;;;;;;;24.52;45.15;100460.91;5080323;28;20031;-64
2022/06/03 08:50:03;;;;;;;12.50;4.28;;;;;;;24.46;44.29;100463.16;5092593;28;20040;-66
2022/06/03 08:52:51;;;;;;;18.13;4.90;;;;;;;24.46;44.11;100456.81;5093728;28;20020;-65
2022/06/03 08:55:41;;;;;;;18.50;4.72;;;;;;;24.58;43.86;100459.44;5080281;28;20027;-63
2022/06/03 08:58:28;;;;;;;14.77;4.43;;;;;;;24.51;44.78;100453.72;5063990;28;20127;-64
2022/06/03 09:01:18;;;;;;;16.85;4.78;;;;;;;24.21;45.21;100465.38;5093397;28;20414;-64
2022/06/03 09:04:03;;;;;;;14.82;5.38;;;;;;;24.07;45.75;100459.50;5097234;28;20078;-65
2022/06/03 09:06:45;;;;;;;;;;;;;;;24.04;45.51;100457.44;5095772;28;20479;-64
2022/06/03 09:09:25;;;;;;;21.23;5.88;;;;;;;23.88;46.23;100462.22;5076595;28;20259;-66
2022/06/03 09:12:05;;;;;;;17.80;5.47;;;;;;;23.75;45.54;100465.13;5093217;28;20490;-65
2022/06/03 09:14:33;;;;;;;19.55;6.13;;;;;;;23.80;45.29;100462.06;5092287;28;20478;-65
2022/06/03 09:17:37;;;;;;;19.15;6.05;;;;;;;23.84;44.68;100459.38;5093338;28;20012;-65
2022/06/03 09:20:11;;;;;;;20.42;6.55;;;;;;;23.93;45.50;100461.97;5093227;28;20024;-64
2022/06/03 09:22:38;;;;;;;19.77;7.22;;;;;;;23.92;45.81;100465.91;5091964;28;20433;-65
2022/06/03 09:25:10;;;;;;;22.45;7.63;;;;;;;23.92;45.35;100465.91;5092467;28;20107;-64
2022/06/03 09:27:39;;;;;;;26.30;7.40;;;;;;;24.02;45.62;100470.88;5091719;28;20028;-65
2022/06/03 09:30:08;;;;;;;26.58;7.57;;;;;;;23.99;46.73;100471.59;5092321;28;20020;-65
2022/06/03 09:32:47;;;;;;;17.20;7.20;;;;;;;23.97;45.97;100465.63;5092983;28;20043;-66
2022/06/03 09:35:19;;;;;;;26.48;8.52;;;;;;;23.88;47.27;100467.78;5093072;28;20089;-64
2022/06/03 09:37:51;;;;;;;32.63;7.90;;;;;;;23.70;48.00;100465.41;5092793;28;20111;-64
2022/06/03 09:40:44;;;;;;;18.50;7.28;;;;;;;23.77;48.23;100460.00;5093156;28;20042;-65
2022/06/03 09:43:14;;;;;;;21.70;7.38;;;;;;;23.75;48.85;100467.09;5069958;28;20050;-64
2022/06/03 09:45:45;;;;;;;23.88;7.88;;;;;;;23.69;49.37;100457.41;5091410;28;20040;-65
2022/06/03 09:48:16;;;;;;;23.75;7.43;;;;;;;23.61;49.60;100461.19;5092945;28;20397;-64
2022/06/03 09:50:47;;;;;;;20.02;7.78;;;;;;;23.54;49.74;100449.91;5092821;28;20103;-65
2022/06/03 09:53:19;;;;;;;25.42;8.13;;;;;;;23.58;50.26;100443.28;5091722;28;20028;-66
2022/06/03 09:55:53;;;;;;;24.90;7.93;;;;;;;23.52;51.14;100436.38;5091215;28;20115;-63
2022/06/03 09:58:24;;;;;;;22.42;7.55;;;;;;;23.51;50.47;100443.06;5092960;28;20116;-65
2022/06/03 10:00:53;;;;;;;19.40;6.70;;;;;;;23.47;51.38;100442.19;5090333;28;20036;-65
2022/06/03 10:03:21;;;;;;;14.82;6.95;;;;;;;23.43;51.47;100444.88;5092766;28;20467;-64
2022/06/03 10:05:51;;;;;;;16.88;6.35;;;;;;;23.31;51.42;100446.94;5092369;28;20089;-65
2022/06/03 10:08:24;;;;;;;19.08;6.72;;;;;;;23.27;52.07;100448.81;5093042;28;20036;-65
2022/06/03 10:13:39;;;;;;;19.13;6.07;;;;;;;23.06;52.85;100460.16;5092708;28;20090;-63
2022/06/03 10:16:08;;;;;;;23.85;6.97;;;;;;;23.00;53.24;100465.16;5092866;28;20024;-64
2022/06/03 10:18:49;;;;;;;21.38;6.13;;;;;;;23.00;53.77;100461.56;5092626;28;20039;-63
2022/06/03 10:21:15;;;;;;;22.73;5.60;;;;;;;22.86;53.38;100459.22;5092426;28;20482;-64
2022/06/03 10:24:00;;;;;;;17.65;5.10;;;;;;;22.73;53.75;100466.75;5092214;28;20047;-64
2022/06/03 10:26:49;;;;;;;15.20;5.65;;;;;;;22.74;53.99;100473.88;5092533;28;20039;-63
2022/06/03 10:29:22;;;;;;;21.13;7.85;;;;;;;22.63;54.38;100464.50;5078750;28;20433;-64
2022/06/03 10:31:54;;;;;;;15.02;5.55;;;;;;;22.59;54.60;100467.13;5091627;28;20033;-66
2022/06/03 10:34:27;;;;;;;19.48;5.70;;;;;;;22.64;54.68;100474.41;5091162;28;20039;-65
2022/06/03 10:36:56;;;;;;;265.63;14.68;;;;;;;22.61;54.62;100475.91;5092506;28;20028;-65
2022/06/03 10:39:30;;;;;;;166.32;9.35;;;;;;;22.56;55.32;100483.66;5074302;28;20126;-64
2022/06/03 10:41:59;;;;;;;16.20;4.70;;;;;;;22.47;55.88;100483.81;5090992;28;20081;-63
2022/06/03 10:44:33;;;;;;;30.92;5.60;;;;;;;22.36;56.08;100479.91;5092085;28;20024;-63
2022/06/03 10:47:13;;;;;;;52.95;6.00;;;;;;;22.35;56.13;100485.81;5076323;28;20110;-65
2022/06/03 10:49:51;;;;;;;164.52;9.40;;;;;;;22.28;56.48;100489.16;5092093;28;20032;-65
2022/06/03 11:01:19;;;;;;;16.48;5.05;;;;;;;22.19;56.79;100486.53;5084104;28;20037;-65
2022/06/03 11:03:50;;;;;;;21.73;6.32;;;;;;;22.22;57.18;100482.25;5090554;28;20070;-66
2022/06/03 11:06:22;;;;;;;20.70;6.35;;;;;;;22.19;56.59;100485.72;5090869;28;20062;-65
2022/06/03 11:08:59;;;;;;;17.35;6.22;;;;;;;22.03;57.30;100488.34;5091977;28;20059;-64
2022/06/03 11:11:56;;;;;;;18.55;6.90;;;;;;;21.88;57.99;100487.09;5092107;28;20459;-65
2022/06/03 11:14:28;;;;;;;21.85;6.20;;;;;;;21.86;58.46;100489.41;5090864;28;20032;-63
2022/06/03 11:17:17;;;;;;;18.85;6.75;;;;;;;21.79;58.86;100489.19;5075120;28;20038;-66
2022/06/03 11:19:57;;;;;;;21.88;7.03;;;;;;;21.76;59.02;100489.06;5090566;28;20101;-64
2022/06/03 11:22:34;;;;;;;67.18;8.40;;;;;;;21.71;58.79;100493.66;5092528;28;20042;-64
2022/06/03 11:25:10;;;;;;;33.63;7.47;;;;;;;21.65;58.09;100488.72;5079585;28;20028;-65
2022/06/03 11:27:57;;;;;;;20.40;7.50;;;;;;;21.59;58.22;100495.63;5094191;28;20398;-65
2022/06/03 11:30:53;;;;;;;18.10;6.70;;;;;;;21.57;58.07;100498.75;5094669;28;20467;-64
2022/06/03 11:33:36;;;;;;;19.20;6.35;;;;;;;21.57;58.66;100495.16;5082235;28;20064;-65
2022/06/03 11:36:18;;;;;;;21.67;6.47;;;;;;;21.52;58.46;100493.41;5095387;28;20070;-63
2022/06/03 11:38:59;;;;;;;19.98;6.60;;;;;;;21.46;58.86;100503.09;5095294;28;20046;-64
2022/06/03 11:41:33;;;;;;;29.38;7.00;;;;;;;21.29;59.18;100501.34;5093929;28;20032;-65
2022/06/03 11:44:25;;;;;;;25.77;7.25;;;;;;;21.27;58.36;100498.09;5073651;28;20056;-65
2022/06/03 11:47:04;;;;;;;17.17;6.60;;;;;;;21.30;58.08;100499.38;5094681;28;20044;-64
2022/06/03 11:49:31;;;;;;;20.63;6.82;;;;;;;21.26;58.29;100499.25;5095141;28;20028;-64
2022/06/03 11:51:58;;;;;;;25.88;7.25;;;;;;;21.22;58.99;100500.25;5073394;28;20144;-65
2022/06/03 11:54:27;;;;;;;29.15;7.88;;;;;;;21.17;58.52;100505.97;5090773;28;20031;-64
2022/06/03 11:56:54;;;;;;;30.00;8.27;;;;;;;21.45;58.18;100517.25;5094789;28;20098;-65
2022/06/03 11:59:31;;;;;;;25.08;7.65;;;;;;;21.25;57.69;100517.00;5094957;28;20093;-65
2022/06/03 12:02:04;;;;;;;23.35;8.10;;;;;;;21.12;58.03;100520.84;5087384;28;20070;-64
2022/06/03 12:04:53;;;;;;;27.03;7.67;;;;;;;21.12;56.35;100520.84;5093406;28;20040;-65
2022/06/03 12:07:22;;;;;;;20.58;6.78;;;;;;;21.30;52.79;100516.75;5094956;28;20055;-63
2022/06/03 12:10:03;;;;;;;15.73;6.47;;;;;;;21.15;52.12;100513.81;5094057;28;20016;-67
2022/06/03 12:15:32;;;;;;;22.83;11.48;;;;;;;21.05;50.35;100509.53;5093396;28;20024;-63
2022/06/03 12:18:11;;;;;;;20.95;13.88;;;;;;;20.97;49.46;100518.69;5093128;28;20043;-65
2022/06/03 12:20:53;;;;;;;21.90;13.20;;;;;;;20.81;49.60;100522.09;5093123;28;20028;-66
2022/06/03 12:23:19;;;;;;;27.15;12.73;;;;;;;20.72;48.96;100528.84;5094494;28;20039;-65
2022/06/03 12:25:50;;;;;;;22.48;10.85;;;;;;;20.66;49.07;100528.25;5094071;28;20545;-64
2022/06/03 12:28:42;;;;;;;26.83;15.13;;;;;;;21.03;47.65;100520.13;5092913;28;20036;-65
2022/06/03 12:31:20;;;;;;;24.77;15.25;;;;;;;20.69;49.01;100522.03;5085987;28;20471;-64
2022/06/03 12:33:58;;;;;;;28.58;15.27;;;;;;;20.67;48.87;100535.38;5093096;28;20032;-64
2022/06/03 12:36:47;;;;;;;28.25;14.45;;;;;;;20.62;48.83;100534.75;5094156;28;20036;-64
2022/06/03 12:39:28;;;;;;;39.22;15.40;;;;;;;20.55;48.64;100528.97;5079978;28;20035;-64
2022/06/03 12:41:54;;;;;;;29.58;11.48;;;;;;;20.63;47.96;100536.38;5093950;28;20032;-64
2022/06/03 12:44:48;;;;;;;41.80;15.18;;;;;;;20.72;47.54;100540.69;5092446;28;20052;-64
2022/06/03 12:47:50;;;;;;;21.13;10.40;;;;;;;20.85;46.76;100555.38;5080222;28;20032;-67
2022/06/03 12:50:51;;;;;;;31.13;11.35;;;;;;;20.88;47.05;100548.38;5029436;28;20118;-67
2022/06/03 12:53:18;;;;;;;26.13;10.98;;;;;;;20.78;46.85;100553.16;5091448;28;20100;-63
2022/06/03 12:55:52;;;;;;;28.35;12.00;;;;;;;20.76;46.68;100547.16;5092943;28;20020;-63
2022/06/03 12:58:43;;;;;;;34.88;14.85;;;;;;;20.81;46.30;100559.94;5093082;28;20077;-65
2022/06/03 13:01:11;;;;;;;35.45;15.07;;;;;;;20.81;45.98;100555.22;5092126;28;20107;-65